createdAt,value
2023-02-06T00:01:29.654Z,47.22
2023-02-06T00:04:17.013Z,47.03
2023-02-06T00:07:03.468Z,43.45
2023-02-06T00:09:50.480Z,40.45
2023-02-06T00:12:36.979Z,41.55
2023-02-06T00:15:23.846Z,39.45
2023-02-06T00:18:09.873Z,54.78
2023-02-06T00:20:56.956Z,48.65
2023-02-06T00:23:43.657Z,45.75
2023-02-06T00:26:31.693Z,43.78
2023-02-06T00:29:18.320Z,36.60
2023-02-06T00:32:06.687Z,37.60
2023-02-06T00:34:53.265Z,38.47
2023-02-06T00:37:39.955Z,37.78
2023-02-06T00:40:26.761Z,38.05
2023-02-06T00:43:16.129Z,35.13
2023-02-06T00:46:02.933Z,34.58
2023-02-06T00:48:49.854Z,35.35
2023-02-06T00:51:38.969Z,37.47
2023-02-06T00:54:31.639Z,34.58
2023-02-06T00:57:18.286Z,33.42
2023-02-06T01:00:08.065Z,35.40
2023-02-06T01:02:54.710Z,36.45
2023-02-06T01:05:41.884Z,33.60
2023-02-06T01:08:28.462Z,32.35
2023-02-06T01:11:17.695Z,30.65
2023-02-06T01:14:03.895Z,32.70
2023-02-06T01:16:50.989Z,34.03
2023-02-06T01:19:38.383Z,36.78
2023-02-06T01:22:25.208Z,36.13
2023-02-06T01:25:12.539Z,35.28
2023-02-06T01:28:01.828Z,37.80
2023-02-06T01:30:49.711Z,40.97
2023-02-06T01:33:36.393Z,37.67
2023-02-06T01:36:23.905Z,34.70
2023-02-06T01:39:10.948Z,36.15
2023-02-06T01:41:57.233Z,33.35
2023-02-06T01:44:45.361Z,31.70
2023-02-06T01:47:32.039Z,32.40
2023-02-06T01:50:18.505Z,32.55
2023-02-06T01:53:06.113Z,32.00
2023-02-06T01:55:54.936Z,31.73
2023-02-06T01:58:43.330Z,34.72
2023-02-06T02:01:30.395Z,33.90
2023-02-06T02:04:20.221Z,34.08
2023-02-06T02:07:12.627Z,33.55
2023-02-06T02:09:59.102Z,32.88
2023-02-06T02:12:48.018Z,33.83
2023-02-06T02:15:45.001Z,33.70
2023-02-06T02:18:55.002Z,36.38
2023-02-06T02:22:12.304Z,35.33
2023-02-06T02:25:14.934Z,34.38
2023-02-06T02:28:19.903Z,31.70
2023-02-06T02:31:19.758Z,33.55
2023-02-06T02:34:45.141Z,33.40
2023-02-06T02:37:45.331Z,34.03
2023-02-06T02:40:50.956Z,34.08
2023-02-06T02:43:45.724Z,32.63
2023-02-06T02:46:38.272Z,31.65
2023-02-06T02:49:27.524Z,27.45
2023-02-06T02:52:14.641Z,30.75
2023-02-06T02:55:01.145Z,30.27
2023-02-06T02:57:52.267Z,34.47
2023-02-06T03:00:43.755Z,32.85
2023-02-06T03:03:32.611Z,34.00
2023-02-06T03:06:34.462Z,34.42
2023-02-06T03:09:34.273Z,32.30
2023-02-06T03:12:58.116Z,34.53
2023-02-06T03:16:00.087Z,32.45
2023-02-06T03:18:56.083Z,31.85
2023-02-06T03:21:43.994Z,32.53
2023-02-06T03:24:33.413Z,32.80
2023-02-06T03:27:21.010Z,30.65
2023-02-06T03:30:10.061Z,34.00
2023-02-06T03:33:01.605Z,35.00
2023-02-06T03:35:49.705Z,32.17
2023-02-06T03:38:36.377Z,33.00
2023-02-06T03:41:27.740Z,34.38
2023-02-06T03:44:17.998Z,34.17
2023-02-06T03:47:06.490Z,34.45
2023-02-06T03:49:56.012Z,33.17
2023-02-06T03:52:46.304Z,34.45
2023-02-06T03:55:32.615Z,34.33
2023-02-06T03:58:19.470Z,35.22
2023-02-06T04:01:07.164Z,33.33
2023-02-06T04:03:54.244Z,35.33
2023-02-06T04:06:40.727Z,33.63
2023-02-06T04:09:27.636Z,32.45
2023-02-06T04:12:15.599Z,36.00
2023-02-06T04:15:02.423Z,37.80
2023-02-06T04:18:00.051Z,34.28
2023-02-06T04:20:47.299Z,37.15
2023-02-06T04:23:34.998Z,34.95
2023-02-06T04:26:24.743Z,35.70
2023-02-06T04:29:12.931Z,37.42
2023-02-06T04:32:02.365Z,34.40
2023-02-06T04:34:48.706Z,33.28
2023-02-06T04:37:35.364Z,34.08
2023-02-06T04:40:22.436Z,34.88
2023-02-06T04:43:09.527Z,34.20
2023-02-06T04:45:56.180Z,34.65
2023-02-06T04:48:42.718Z,35.53
2023-02-06T04:51:29.418Z,36.33
2023-02-06T04:54:17.534Z,35.38
2023-02-06T04:57:04.065Z,33.35
2023-02-06T04:59:50.688Z,35.83
2023-02-06T05:02:39.818Z,34.92
2023-02-06T05:05:27.152Z,32.95
2023-02-06T05:08:13.677Z,33.65
2023-02-06T05:11:00.527Z,46.53
2023-02-06T05:13:46.955Z,40.97
2023-02-06T05:16:33.723Z,41.80
2023-02-06T05:19:20.186Z,48.08
2023-02-06T05:22:07.376Z,44.30
2023-02-06T05:24:53.687Z,41.03
2023-02-06T05:27:40.749Z,41.17
2023-02-06T05:30:27.159Z,37.55
2023-02-06T05:33:13.944Z,36.88
2023-02-06T05:36:07.913Z,36.97
2023-02-06T05:38:54.588Z,40.20
2023-02-06T05:41:40.889Z,40.67
2023-02-06T05:44:28.032Z,38.10
2023-02-06T05:47:17.097Z,39.53
2023-02-06T05:50:04.025Z,43.03
2023-02-06T05:52:50.198Z,40.17
2023-02-06T05:55:37.343Z,43.30
2023-02-06T05:58:23.841Z,39.42
2023-02-06T06:01:12.184Z,38.55
2023-02-06T06:03:58.481Z,42.38
2023-02-06T06:06:45.346Z,39.65
2023-02-06T06:09:34.357Z,38.58
2023-02-06T06:12:23.557Z,38.28
2023-02-06T06:18:21.124Z,37.90
2023-02-06T06:21:07.689Z,37.10
2023-02-06T06:23:54.457Z,38.40
2023-02-06T06:26:41.437Z,39.17
2023-02-06T06:29:28.055Z,47.33
2023-02-06T06:32:14.721Z,49.70
2023-02-06T06:35:01.178Z,49.33
2023-02-06T06:37:48.051Z,45.30
2023-02-06T06:40:34.612Z,45.97
2023-02-06T06:43:21.668Z,51.95
2023-02-06T06:46:10.259Z,53.88
2023-02-06T06:48:56.762Z,52.17
2023-02-06T06:51:43.254Z,50.33
2023-02-06T06:54:30.330Z,55.80
2023-02-06T06:57:17.009Z,57.63
2023-02-06T07:00:04.876Z,55.55
2023-02-06T07:02:51.830Z,56.70
2023-02-06T07:05:39.205Z,58.17
2023-02-06T07:08:27.026Z,61.60
2023-02-06T07:11:15.378Z,65.63
2023-02-06T07:14:03.637Z,66.22
2023-02-06T07:16:50.495Z,58.00
2023-02-06T07:19:37.126Z,53.30
2023-02-06T07:22:25.781Z,54.05
2023-02-06T07:25:15.882Z,54.60
2023-02-06T07:28:03.732Z,53.13
2023-02-06T07:30:58.546Z,52.08
2023-02-06T07:33:46.066Z,54.58
2023-02-06T07:36:32.859Z,58.53
2023-02-06T07:39:19.657Z,58.15
2023-02-06T07:42:06.828Z,62.08
2023-02-06T07:45:09.909Z,62.15
2023-02-06T07:47:56.329Z,65.13
2023-02-06T07:50:43.100Z,67.25
2023-02-06T07:53:29.873Z,49.38
2023-02-06T07:56:20.837Z,50.45
2023-02-06T07:59:08.237Z,54.70
2023-02-06T08:01:54.746Z,44.30
2023-02-06T08:04:41.498Z,50.70
2023-02-06T08:07:28.492Z,45.00
2023-02-06T08:10:14.796Z,44.17
2023-02-06T08:13:02.597Z,41.55
2023-02-06T08:15:49.076Z,43.63
2023-02-06T08:18:37.243Z,42.97
2023-02-06T08:21:25.741Z,38.08
2023-02-06T08:24:15.633Z,36.53
2023-02-06T08:27:01.592Z,36.10
2023-02-06T08:29:48.488Z,37.53
2023-02-06T08:32:35.660Z,44.10
2023-02-06T08:35:25.411Z,39.95
2023-02-06T08:38:11.506Z,33.50
2023-02-06T08:40:58.373Z,31.13
2023-02-06T08:43:46.743Z,36.15
2023-02-06T08:46:35.871Z,39.05
2023-02-06T08:49:26.977Z,35.05
2023-02-06T08:52:13.427Z,28.63
2023-02-06T08:55:00.058Z,28.92
2023-02-06T08:57:47.916Z,25.95
2023-02-06T09:00:34.631Z,31.40
2023-02-06T09:03:22.928Z,29.65
2023-02-06T09:06:10.658Z,25.42
2023-02-06T09:08:57.924Z,25.00
2023-02-06T09:11:44.431Z,28.98
2023-02-06T09:14:32.003Z,27.40
2023-02-06T09:17:18.289Z,23.40
2023-02-06T09:20:05.572Z,21.52
2023-02-06T09:22:52.054Z,22.40
2023-02-06T09:25:40.083Z,24.45
2023-02-06T09:28:26.977Z,22.00
2023-02-06T09:31:14.004Z,20.67
2023-02-06T09:34:00.800Z,27.77
2023-02-06T09:36:47.378Z,21.52
2023-02-06T09:39:33.969Z,20.20
2023-02-06T09:42:38.600Z,20.85
2023-02-06T09:45:28.034Z,18.42
2023-02-06T09:48:25.339Z,16.80
2023-02-06T09:51:47.274Z,15.35
2023-02-06T09:54:45.638Z,16.55
2023-02-06T09:57:42.215Z,14.75
2023-02-06T10:00:42.046Z,16.92
2023-02-06T10:03:45.350Z,12.43
2023-02-06T10:06:53.413Z,13.52
2023-02-06T10:09:59.853Z,12.43
2023-02-06T10:12:52.962Z,14.35
2023-02-06T10:15:46.492Z,14.32
2023-02-06T10:18:48.335Z,17.75
2023-02-06T10:21:45.536Z,12.23
2023-02-06T10:24:32.102Z,12.75
2023-02-06T10:27:20.173Z,13.20
2023-02-06T10:30:12.492Z,11.73
2023-02-06T10:33:09.705Z,11.52
2023-02-06T10:36:12.559Z,14.43
2023-02-06T10:39:27.768Z,9.40
2023-02-06T10:42:33.446Z,12.40
2023-02-06T10:45:40.017Z,10.48
2023-02-06T10:48:41.758Z,9.70
2023-02-06T10:51:35.048Z,9.27
2023-02-06T10:54:31.184Z,10.40
2023-02-06T10:57:20.368Z,13.13
2023-02-06T11:00:16.499Z,10.90
2023-02-06T11:03:08.141Z,13.15
2023-02-06T11:05:55.780Z,12.73
2023-02-06T11:08:45.103Z,11.88
2023-02-06T11:11:40.134Z,18.40
2023-02-06T11:14:30.805Z,11.63
2023-02-06T11:17:19.069Z,12.27
2023-02-06T11:20:28.226Z,11.35
2023-02-06T11:23:23.201Z,12.45
2023-02-06T11:26:14.400Z,12.18
2023-02-06T11:29:16.668Z,11.45
2023-02-06T11:32:08.953Z,12.30
2023-02-06T11:35:01.356Z,9.10
2023-02-06T11:37:57.225Z,9.15
2023-02-06T11:40:54.914Z,9.95
2023-02-06T11:43:41.034Z,9.75
2023-02-06T11:46:35.240Z,9.52
2023-02-06T11:49:29.090Z,9.77
2023-02-06T11:52:46.967Z,8.43
2023-02-06T11:55:35.413Z,10.23
2023-02-06T11:58:25.547Z,8.15
2023-02-06T12:01:22.631Z,6.75
2023-02-06T12:04:25.987Z,7.43
2023-02-06T12:07:35.370Z,6.80
2023-02-06T12:10:23.812Z,9.35
2023-02-06T12:13:21.167Z,8.98
2023-02-06T12:16:09.306Z,9.50
2023-02-06T12:18:58.325Z,8.55
2023-02-06T12:21:53.717Z,8.98
2023-02-06T12:24:46.698Z,7.82
2023-02-06T12:27:40.064Z,8.60
2023-02-06T12:30:32.215Z,8.77
2023-02-06T12:33:23.012Z,10.75
2023-02-06T12:36:54.979Z,9.77
2023-02-06T12:39:43.844Z,8.93
2023-02-06T12:42:36.629Z,9.48
2023-02-06T12:45:37.471Z,9.52
2023-02-06T12:48:44.521Z,10.50
2023-02-06T12:51:37.064Z,9.68
2023-02-06T12:54:31.604Z,9.43
2023-02-06T12:57:29.575Z,9.65
2023-02-06T13:00:45.823Z,9.15
2023-02-06T13:03:43.081Z,9.35
2023-02-06T13:06:53.602Z,11.80
2023-02-06T13:10:19.409Z,11.40
2023-02-06T13:13:06.396Z,10.70
2023-02-06T13:15:57.805Z,11.73
2023-02-06T13:18:50.772Z,10.35
2023-02-06T13:21:38.364Z,9.27
2023-02-06T13:24:24.835Z,10.32
2023-02-06T13:27:16.530Z,9.30
2023-02-06T13:30:17.704Z,10.98
2023-02-06T13:33:17.899Z,10.00
2023-02-06T13:36:10.269Z,11.80
2023-02-06T13:39:02.373Z,10.88
2023-02-06T13:44:38.850Z,10.50
2023-02-06T13:47:42.062Z,10.48
2023-02-06T13:50:36.466Z,9.68
2023-02-06T13:53:35.143Z,10.85
2023-02-06T13:56:43.849Z,10.13
2023-02-06T13:59:37.161Z,10.35
2023-02-06T14:02:39.759Z,9.73
2023-02-06T14:05:33.287Z,13.63
2023-02-06T14:08:35.312Z,12.27
2023-02-06T14:12:03.464Z,10.82
2023-02-06T14:15:12.248Z,10.82
2023-02-06T14:18:27.263Z,9.50
2023-02-06T14:21:35.426Z,9.38
2023-02-06T14:25:04.399Z,10.63
2023-02-06T14:28:06.630Z,13.90
2023-02-06T14:31:14.493Z,11.68
2023-02-06T14:34:39.145Z,10.60
2023-02-06T14:37:47.112Z,10.80
2023-02-06T14:40:39.174Z,11.05
2023-02-06T14:43:31.414Z,9.40
2023-02-06T14:46:19.685Z,9.77
2023-02-06T14:49:15.785Z,9.15
2023-02-06T14:52:03.433Z,8.80
2023-02-06T14:54:50.409Z,13.07
2023-02-06T14:57:39.525Z,24.90
2023-02-06T15:00:27.192Z,12.10
2023-02-06T15:03:19.348Z,18.17
2023-02-06T15:06:09.951Z,19.67
2023-02-06T15:08:57.034Z,15.43
2023-02-06T15:11:51.514Z,12.10
2023-02-06T15:14:38.624Z,12.23
2023-02-06T15:17:27.102Z,11.00
2023-02-06T15:20:34.792Z,10.93
2023-02-06T15:23:39.828Z,11.10
2023-02-06T15:26:35.734Z,10.90
2023-02-06T15:29:27.007Z,11.70
2023-02-06T15:35:27.176Z,14.38
2023-02-06T15:38:23.029Z,14.85
2023-02-06T15:41:12.470Z,13.43
2023-02-06T15:44:10.419Z,18.92
2023-02-06T15:46:58.318Z,41.63
2023-02-06T15:49:48.042Z,52.17
2023-02-06T15:52:48.510Z,39.13
2023-02-06T15:55:36.883Z,34.00
2023-02-06T15:58:25.282Z,37.17
2023-02-06T16:01:18.231Z,42.60
2023-02-06T16:04:19.873Z,43.90
2023-02-06T16:07:20.265Z,42.20
2023-02-06T16:10:29.186Z,43.15
2023-02-06T16:13:19.741Z,45.65
2023-02-06T16:16:09.461Z,35.70
2023-02-06T16:19:01.061Z,31.38
2023-02-06T16:22:04.828Z,38.60
2023-02-06T16:24:54.359Z,89.97
2023-02-06T16:27:45.823Z,132.15
2023-02-06T16:30:34.955Z,81.25
2023-02-06T16:33:47.643Z,63.60
2023-02-06T16:39:24.141Z,40.80
2023-02-06T16:42:19.449Z,34.47
2023-02-06T16:45:26.516Z,31.00
2023-02-06T16:48:18.152Z,27.23
2023-02-06T16:51:06.741Z,27.58
2023-02-06T16:53:54.057Z,26.50
2023-02-06T16:56:40.450Z,26.88
2023-02-06T16:59:30.192Z,31.10
2023-02-06T17:02:20.110Z,34.90
2023-02-06T17:05:07.363Z,31.42
2023-02-06T17:07:55.078Z,41.85
2023-02-06T17:10:42.613Z,32.88
2023-02-06T17:13:30.922Z,32.58
2023-02-06T17:16:26.403Z,34.35
2023-02-06T17:19:16.068Z,35.78
2023-02-06T17:22:03.305Z,39.75
2023-02-06T17:24:49.912Z,41.13
2023-02-06T17:27:40.300Z,39.97
2023-02-06T17:30:30.195Z,39.10
2023-02-06T17:33:18.670Z,47.42
2023-02-06T17:36:08.371Z,37.85
2023-02-06T17:38:59.040Z,41.08
2023-02-06T17:41:45.521Z,39.78
2023-02-06T17:44:32.098Z,40.25
2023-02-06T17:47:18.549Z,44.42
2023-02-06T17:50:06.382Z,53.72
2023-02-06T17:52:55.699Z,48.67
2023-02-06T17:55:45.397Z,44.00
2023-02-06T17:58:31.819Z,47.95
2023-02-06T18:01:23.031Z,46.97
2023-02-06T18:04:13.416Z,48.67
2023-02-06T18:07:03.479Z,73.28
2023-02-06T18:09:50.021Z,76.22
2023-02-06T18:12:39.264Z,53.40
2023-02-06T18:15:26.042Z,67.53
2023-02-06T18:18:13.015Z,58.35
2023-02-06T18:20:59.482Z,57.60
2023-02-06T18:23:47.935Z,62.00
2023-02-06T18:26:37.114Z,48.80
2023-02-06T18:29:23.978Z,44.88
2023-02-06T18:32:11.489Z,46.08
2023-02-06T18:34:59.039Z,47.47
2023-02-06T18:37:45.699Z,51.70
2023-02-06T18:40:33.203Z,56.45
2023-02-06T18:43:19.805Z,54.50
2023-02-06T18:46:07.488Z,49.40
2023-02-06T18:48:55.193Z,47.45
2023-02-06T18:51:42.213Z,49.97
2023-02-06T18:54:28.582Z,48.85
2023-02-06T18:57:15.640Z,49.13
2023-02-06T19:00:03.510Z,50.15
2023-02-06T19:02:50.917Z,47.70
2023-02-06T19:05:40.608Z,48.63
2023-02-06T19:08:26.953Z,44.55
2023-02-06T19:11:13.248Z,43.83
2023-02-06T19:14:02.251Z,45.42
2023-02-06T19:16:50.526Z,47.55
2023-02-06T19:19:38.572Z,46.88
2023-02-06T19:22:25.008Z,46.70
2023-02-06T19:25:14.548Z,57.25
2023-02-06T19:28:01.050Z,56.60
2023-02-06T19:30:47.825Z,60.67
2023-02-06T19:33:36.149Z,50.88
2023-02-06T19:36:24.336Z,48.05
2023-02-06T19:39:12.883Z,51.33
2023-02-06T19:42:09.687Z,56.17
2023-02-06T19:44:59.000Z,65.28
2023-02-06T19:47:46.048Z,94.82
2023-02-06T19:50:35.685Z,92.32
2023-02-06T19:53:23.019Z,91.25
2023-02-06T19:56:09.343Z,82.40
2023-02-06T19:58:57.847Z,59.13
2023-02-06T20:01:50.137Z,62.95
2023-02-06T20:04:37.956Z,60.72
2023-02-06T20:07:24.064Z,61.58
2023-02-06T20:10:10.824Z,63.72
2023-02-06T20:13:00.953Z,55.38
2023-02-06T20:15:49.914Z,54.08
2023-02-06T20:18:36.926Z,50.35
2023-02-06T20:21:32.552Z,48.03
2023-02-06T20:24:22.044Z,49.88
2023-02-06T20:27:09.210Z,62.55
2023-02-06T20:29:55.579Z,63.70
2023-02-06T20:32:42.741Z,74.13
2023-02-06T20:35:29.218Z,67.97
2023-02-06T20:38:16.029Z,60.83
2023-02-06T20:41:07.159Z,64.90
2023-02-06T20:43:53.609Z,64.85
2023-02-06T20:46:40.160Z,62.70
2023-02-06T20:49:36.248Z,59.45
2023-02-06T20:52:23.038Z,64.07
2023-02-06T20:55:09.920Z,62.33
2023-02-06T20:57:57.049Z,60.13
2023-02-06T21:00:43.661Z,63.50
2023-02-06T21:03:30.925Z,63.08
2023-02-06T21:06:17.833Z,76.20
2023-02-06T21:09:06.489Z,77.63
2023-02-06T21:11:53.291Z,70.00
2023-02-06T21:14:39.908Z,64.45
2023-02-06T21:17:26.181Z,63.97
2023-02-06T21:20:13.229Z,75.18
2023-02-06T21:22:59.451Z,81.22
2023-02-06T21:25:54.298Z,76.22
2023-02-06T21:28:40.882Z,73.30
2023-02-06T21:31:38.087Z,72.90
2023-02-06T21:34:26.138Z,67.90
2023-02-06T21:37:15.649Z,79.65
2023-02-06T21:40:01.838Z,84.13
2023-02-06T21:42:48.739Z,84.15
2023-02-06T21:45:38.602Z,81.30
2023-02-06T21:48:25.282Z,79.28
2023-02-06T21:51:17.174Z,79.25
2023-02-06T21:54:04.400Z,74.38
2023-02-06T21:56:50.976Z,63.97
2023-02-06T21:59:38.669Z,63.10
2023-02-06T22:02:25.260Z,62.25
2023-02-06T22:05:11.829Z,62.95
2023-02-06T22:07:59.086Z,64.40
2023-02-06T22:10:46.060Z,65.75
2023-02-06T22:13:32.448Z,67.70
2023-02-06T22:16:21.782Z,68.97
2023-02-06T22:19:08.198Z,64.15
2023-02-06T22:21:59.345Z,64.40
2023-02-06T22:24:48.597Z,62.33
2023-02-06T22:27:36.099Z,64.57
2023-02-06T22:30:26.628Z,67.68
2023-02-06T22:33:13.364Z,65.88
2023-02-06T22:36:00.258Z,67.22
2023-02-06T22:38:48.115Z,62.47
2023-02-06T22:41:37.442Z,63.10
2023-02-06T22:44:24.274Z,66.35
2023-02-06T22:47:10.759Z,63.80
2023-02-06T22:49:57.592Z,69.28
2023-02-06T22:53:02.950Z,64.32
2023-02-06T22:56:08.411Z,63.53
2023-02-06T22:59:23.903Z,64.03
2023-02-06T23:02:11.033Z,62.55
2023-02-06T23:04:57.912Z,68.93
2023-02-06T23:07:44.733Z,62.53
2023-02-06T23:10:31.253Z,66.85
2023-02-06T23:13:18.329Z,66.60
2023-02-06T23:16:08.044Z,64.88
2023-02-06T23:18:57.728Z,64.55
2023-02-06T23:21:48.002Z,65.28
2023-02-06T23:24:34.884Z,63.92
2023-02-06T23:27:21.304Z,68.35
2023-02-06T23:30:08.965Z,63.85
2023-02-06T23:32:55.413Z,65.07
2023-02-06T23:35:42.646Z,62.55
2023-02-06T23:38:28.787Z,62.28
2023-02-06T23:41:21.393Z,65.10
2023-02-06T23:44:08.218Z,66.60
2023-02-06T23:46:54.609Z,62.63
2023-02-06T23:49:40.889Z,60.97
2023-02-06T23:52:30.563Z,58.55
2023-02-06T23:55:18.050Z,61.47
2023-02-06T23:58:04.552Z,61.13
